createdAt,value
2023-05-11T00:00:51.850Z,0.90
2023-05-11T00:03:18.667Z,0.90
2023-05-11T00:05:49.272Z,0.90
2023-05-11T00:08:17.362Z,0.82
2023-05-11T00:10:47.818Z,0.95
2023-05-11T00:13:14.676Z,0.90
2023-05-11T00:15:41.610Z,0.80
2023-05-11T00:18:08.331Z,0.90
2023-05-11T00:20:35.156Z,0.90
2023-05-11T00:23:02.347Z,0.80
2023-05-11T00:25:28.952Z,0.80
2023-05-11T00:27:55.522Z,0.85
2023-05-11T00:30:22.296Z,0.80
2023-05-11T00:32:51.518Z,0.90
2023-05-11T00:35:18.163Z,0.80
2023-05-11T00:37:45.081Z,0.90
2023-05-11T00:40:11.801Z,0.82
2023-05-11T00:42:38.429Z,0.80
2023-05-11T00:45:05.637Z,0.88
2023-05-11T00:47:33.118Z,0.80
2023-05-11T00:49:59.942Z,0.80
2023-05-11T00:52:26.882Z,0.70
2023-05-11T00:54:53.556Z,0.90
2023-05-11T00:57:21.328Z,0.85
2023-05-11T00:59:49.821Z,0.90
2023-05-11T01:02:17.417Z,0.80
2023-05-11T01:04:44.793Z,0.80
2023-05-11T01:07:24.039Z,0.90
2023-05-11T01:10:15.699Z,0.85
2023-05-11T01:12:54.584Z,0.90
2023-05-11T01:15:40.013Z,0.73
2023-05-11T01:18:18.415Z,0.80
2023-05-11T01:20:47.885Z,0.80
2023-05-11T01:23:40.586Z,0.80
2023-05-11T01:26:29.260Z,0.80
2023-05-11T01:29:07.683Z,0.80
2023-05-11T01:31:35.416Z,0.80
2023-05-11T01:34:06.367Z,0.70
2023-05-11T01:36:36.222Z,0.80
2023-05-11T01:39:10.056Z,0.70
2023-05-11T01:41:39.491Z,0.80
2023-05-11T01:44:09.665Z,0.80
2023-05-11T01:46:36.790Z,0.80
2023-05-11T01:49:09.593Z,0.82
2023-05-11T01:51:37.888Z,0.80
2023-05-11T01:54:08.054Z,0.90
2023-05-11T01:56:36.398Z,0.85
2023-05-11T01:59:03.758Z,0.80
2023-05-11T02:01:32.115Z,0.90
2023-05-11T02:04:02.263Z,0.80
2023-05-11T02:06:29.691Z,0.70
2023-05-11T02:08:58.493Z,0.85
2023-05-11T02:11:27.942Z,0.80
2023-05-11T02:13:57.059Z,0.80
2023-05-11T02:16:27.837Z,0.82
2023-05-11T02:18:55.785Z,0.80
2023-05-11T02:21:23.011Z,0.80
2023-05-11T02:23:51.386Z,0.90
2023-05-11T02:26:18.054Z,0.70
2023-05-11T02:28:44.837Z,0.80
2023-05-11T02:31:17.614Z,0.80
2023-05-11T02:33:48.220Z,0.82
2023-05-11T02:36:20.355Z,0.80
2023-05-11T02:38:49.074Z,0.88
2023-05-11T02:41:21.894Z,0.90
2023-05-11T02:43:51.758Z,0.80
2023-05-11T02:46:21.744Z,0.80
2023-05-11T02:48:54.552Z,0.88
2023-05-11T02:51:24.740Z,0.80
2023-05-11T02:53:56.135Z,0.90
2023-05-11T02:56:24.634Z,0.80
2023-05-11T02:58:51.309Z,0.80
2023-05-11T03:01:18.342Z,0.80
2023-05-11T03:03:45.146Z,0.85
2023-05-11T03:06:11.863Z,0.70
2023-05-11T03:08:38.672Z,0.80
2023-05-11T03:11:06.144Z,0.80
2023-05-11T03:13:33.633Z,0.80
2023-05-11T03:16:02.462Z,0.80
2023-05-11T03:18:30.062Z,0.90
2023-05-11T03:21:00.692Z,0.90
2023-05-11T03:23:29.990Z,0.90
2023-05-11T03:25:58.120Z,0.88
2023-05-11T03:28:25.909Z,0.90
2023-05-11T03:30:54.191Z,0.80
2023-05-11T03:33:21.184Z,0.80
2023-05-11T03:35:50.128Z,0.90
2023-05-11T03:38:17.346Z,0.80
2023-05-11T03:40:45.931Z,0.80
2023-05-11T03:43:16.612Z,0.85
2023-05-11T03:45:44.368Z,0.90
2023-05-11T03:48:12.260Z,0.95
2023-05-11T03:50:39.756Z,0.80
2023-05-11T03:53:06.762Z,0.80
2023-05-11T03:55:33.553Z,0.90
2023-05-11T03:58:01.356Z,1.00
2023-05-11T04:00:30.750Z,0.88
2023-05-11T04:02:57.480Z,1.00
2023-05-11T04:05:24.168Z,0.95
2023-05-11T04:07:51.667Z,0.95
2023-05-11T04:10:18.617Z,0.90
2023-05-11T04:12:45.523Z,0.90
2023-05-11T04:15:12.235Z,0.90
2023-05-11T04:17:38.858Z,0.98
2023-05-11T04:20:06.282Z,1.00
2023-05-11T04:22:32.886Z,1.00
2023-05-11T04:24:59.613Z,1.10
2023-05-11T04:27:26.198Z,1.05
2023-05-11T04:29:52.804Z,0.95
2023-05-11T04:32:19.360Z,1.00
2023-05-11T04:34:46.160Z,0.90
2023-05-11T04:37:12.780Z,0.90
2023-05-11T04:39:39.367Z,1.00
2023-05-11T04:42:06.100Z,1.02
2023-05-11T04:44:32.814Z,0.90
2023-05-11T04:46:59.724Z,1.00
2023-05-11T04:49:26.714Z,1.00
2023-05-11T04:51:53.352Z,0.90
2023-05-11T04:54:20.266Z,0.90
2023-05-11T04:56:46.933Z,1.00
2023-05-11T04:59:13.491Z,0.90
2023-05-11T05:01:40.253Z,1.00
2023-05-11T05:04:07.003Z,1.00
2023-05-11T05:06:33.881Z,1.00
2023-05-11T05:09:00.477Z,0.98
2023-05-11T05:11:27.048Z,0.90
2023-05-11T05:13:54.749Z,1.00
2023-05-11T05:16:21.435Z,1.13
2023-05-11T05:18:48.092Z,0.90
2023-05-11T05:21:14.711Z,1.00
2023-05-11T05:23:41.365Z,0.90
2023-05-11T05:26:07.958Z,1.02
2023-05-11T05:28:35.928Z,0.98
2023-05-11T05:31:02.649Z,1.05
2023-05-11T05:33:29.283Z,1.08
2023-05-11T05:35:55.924Z,1.10
2023-05-11T05:38:22.587Z,1.10
2023-05-11T05:40:49.257Z,0.95
2023-05-11T05:43:15.927Z,0.93
2023-05-11T05:45:42.538Z,0.90
2023-05-11T05:48:10.199Z,1.00
2023-05-11T05:50:37.661Z,1.00
2023-05-11T05:53:04.296Z,1.23
2023-05-11T05:55:31.032Z,1.00
2023-05-11T05:57:57.688Z,1.08
2023-05-11T06:00:24.285Z,1.10
2023-05-11T06:02:50.981Z,1.00
2023-05-11T06:05:17.623Z,1.10
2023-05-11T06:07:49.316Z,1.20
2023-05-11T06:10:21.209Z,1.20
2023-05-11T06:12:47.815Z,1.30
2023-05-11T06:15:14.401Z,1.10
2023-05-11T06:17:41.927Z,1.20
2023-05-11T06:20:09.058Z,1.20
2023-05-11T06:22:36.028Z,1.23
2023-05-11T06:25:02.958Z,1.20
2023-05-11T06:27:29.601Z,1.13
2023-05-11T06:29:56.169Z,1.20
2023-05-11T06:32:23.180Z,1.20
2023-05-11T06:34:49.774Z,1.10
2023-05-11T06:37:20.649Z,1.00
2023-05-11T06:39:48.297Z,1.20
2023-05-11T06:42:15.218Z,0.98
2023-05-11T06:44:41.973Z,1.05
2023-05-11T06:47:08.750Z,1.10
2023-05-11T06:49:35.766Z,0.90
2023-05-11T06:52:02.425Z,1.00
2023-05-11T06:54:28.997Z,1.00
2023-05-11T06:56:55.684Z,1.00
2023-05-11T06:59:22.239Z,1.00
2023-05-11T07:01:48.874Z,0.90
2023-05-11T07:04:15.738Z,0.90
2023-05-11T07:06:42.352Z,1.00
2023-05-11T07:09:09.032Z,0.90
2023-05-11T07:11:35.747Z,0.90
2023-05-11T07:14:02.429Z,1.10
2023-05-11T07:16:29.143Z,0.98
2023-05-11T07:18:56.286Z,0.90
2023-05-11T07:21:23.177Z,1.08
2023-05-11T07:23:49.817Z,0.90
2023-05-11T07:26:16.624Z,1.10
2023-05-11T07:28:43.193Z,1.05
2023-05-11T07:31:09.786Z,1.00
2023-05-11T07:33:38.449Z,1.00
2023-05-11T07:36:06.774Z,1.02
2023-05-11T07:38:33.621Z,1.08
2023-05-11T07:41:00.308Z,1.10
2023-05-11T07:43:26.950Z,1.27
2023-05-11T07:45:53.593Z,1.00
2023-05-11T07:48:20.227Z,1.00
2023-05-11T07:50:47.106Z,1.30
2023-05-11T07:53:13.675Z,1.10
2023-05-11T07:55:40.303Z,1.10
2023-05-11T07:58:06.923Z,1.00
2023-05-11T08:00:34.188Z,1.02
2023-05-11T08:03:02.049Z,1.30
2023-05-11T08:05:30.717Z,1.00
2023-05-11T08:07:57.312Z,1.00
2023-05-11T08:10:23.946Z,1.05
2023-05-11T08:12:50.541Z,1.10
2023-05-11T08:15:17.918Z,1.10
2023-05-11T08:17:46.197Z,1.00
2023-05-11T08:20:13.382Z,1.20
2023-05-11T08:22:39.948Z,1.10
2023-05-11T08:25:07.649Z,1.20
2023-05-11T08:27:34.339Z,1.13
2023-05-11T08:30:03.708Z,1.23
2023-05-11T08:32:30.494Z,1.27
2023-05-11T08:34:57.523Z,1.30
2023-05-11T08:37:24.345Z,1.10
2023-05-11T08:39:51.498Z,1.45
2023-05-11T08:42:19.525Z,1.27
2023-05-11T08:44:48.186Z,1.30
2023-05-11T08:49:45.497Z,1.30
2023-05-11T08:52:14.115Z,1.25
2023-05-11T08:54:40.725Z,1.15
2023-05-11T08:57:07.883Z,1.35
2023-05-11T08:59:34.903Z,1.40
2023-05-11T09:02:03.182Z,1.50
2023-05-11T09:04:30.427Z,1.33
2023-05-11T09:06:57.683Z,1.30
2023-05-11T09:09:24.363Z,1.20
2023-05-11T09:11:51.746Z,1.20
2023-05-11T09:14:18.736Z,1.40
2023-05-11T09:16:45.827Z,1.35
2023-05-11T09:19:18.366Z,1.30
2023-05-11T09:21:45.046Z,1.17
2023-05-11T09:24:13.137Z,1.30
2023-05-11T09:26:40.322Z,1.40
2023-05-11T09:29:07.096Z,1.20
2023-05-11T09:31:44.708Z,1.23
2023-05-11T09:34:14.761Z,1.40
2023-05-11T09:36:52.403Z,1.30
2023-05-11T09:39:36.901Z,1.38
2023-05-11T09:42:13.441Z,1.38
2023-05-11T09:44:41.758Z,1.50
2023-05-11T09:47:27.711Z,1.40
2023-05-11T09:49:54.287Z,1.50
2023-05-11T09:52:21.209Z,1.50
2023-05-11T09:54:52.506Z,1.45
2023-05-11T09:57:26.079Z,1.48
2023-05-11T10:02:19.467Z,1.27
2023-05-11T10:04:46.512Z,1.38
2023-05-11T10:07:27.912Z,1.50
2023-05-11T10:09:56.514Z,1.38
2023-05-11T10:12:25.891Z,1.40
2023-05-11T10:14:58.520Z,1.40
2023-05-11T10:17:25.514Z,1.40
2023-05-11T10:19:55.243Z,1.30
2023-05-11T10:22:22.405Z,1.40
2023-05-11T10:24:50.679Z,1.75
2023-05-11T10:27:18.568Z,1.67
2023-05-11T10:29:45.916Z,1.67
2023-05-11T10:32:13.475Z,1.50
2023-05-11T10:34:42.150Z,1.60
2023-05-11T10:37:09.399Z,1.90
2023-05-11T10:39:40.818Z,1.65
2023-05-11T10:42:22.493Z,1.75
2023-05-11T10:45:16.690Z,1.85
2023-05-11T10:48:06.268Z,1.98
2023-05-11T10:50:43.299Z,1.80
2023-05-11T10:53:37.379Z,1.73
2023-05-11T10:56:35.378Z,2.00
2023-05-11T10:59:22.027Z,2.08
2023-05-11T11:01:59.103Z,1.90
2023-05-11T11:04:41.536Z,1.80
2023-05-11T11:07:08.618Z,1.77
2023-05-11T11:09:57.302Z,1.77
2023-05-11T11:12:26.980Z,1.67
2023-05-11T11:15:00.347Z,1.75
2023-05-11T11:17:31.913Z,1.70
2023-05-11T11:20:01.341Z,1.70
2023-05-11T11:22:38.440Z,1.90
2023-05-11T11:25:06.957Z,1.98
2023-05-11T11:27:45.838Z,1.90
2023-05-11T11:30:19.699Z,1.90
2023-05-11T11:35:41.982Z,2.00
2023-05-11T11:38:10.535Z,1.90
2023-05-11T11:40:49.503Z,1.80
2023-05-11T11:43:21.662Z,1.52
2023-05-11T11:45:54.381Z,2.17
2023-05-11T11:48:36.241Z,1.80
2023-05-11T11:51:13.838Z,2.10
2023-05-11T11:53:44.676Z,1.70
2023-05-11T11:56:14.321Z,1.80
2023-05-11T11:58:44.483Z,1.60
2023-05-11T12:01:22.037Z,1.80
2023-05-11T12:04:23.165Z,1.90
2023-05-11T12:06:58.090Z,1.65
2023-05-11T12:09:26.791Z,1.90
2023-05-11T12:11:53.841Z,1.80
2023-05-11T12:14:21.495Z,1.90
2023-05-11T12:17:05.451Z,1.90
2023-05-11T12:19:32.136Z,1.98
2023-05-11T12:21:59.074Z,2.00
2023-05-11T12:24:26.436Z,2.17
2023-05-11T12:26:55.981Z,2.33
2023-05-11T12:29:22.694Z,2.15
2023-05-11T12:31:49.298Z,2.40
2023-05-11T12:34:16.475Z,2.22
2023-05-11T12:36:45.265Z,1.98
2023-05-11T12:39:20.955Z,1.90
2023-05-11T12:41:49.950Z,2.00
2023-05-11T12:44:18.181Z,2.05
2023-05-11T12:46:47.036Z,2.17
2023-05-11T12:51:58.005Z,2.00
2023-05-11T12:54:35.828Z,2.35
2023-05-11T12:57:04.072Z,2.22
2023-05-11T12:59:34.323Z,2.00
2023-05-11T13:02:17.438Z,2.00
2023-05-11T13:04:45.691Z,2.13
2023-05-11T13:07:13.998Z,1.88
2023-05-11T13:09:41.470Z,1.95
2023-05-11T13:12:11.044Z,2.22
2023-05-11T13:14:38.270Z,1.90
2023-05-11T13:17:05.475Z,2.17
2023-05-11T13:19:33.586Z,2.20
2023-05-11T13:22:00.882Z,2.10
2023-05-11T13:24:27.504Z,2.10
2023-05-11T13:26:54.528Z,2.03
2023-05-11T13:29:21.745Z,2.10
2023-05-11T13:31:53.019Z,2.20
2023-05-11T13:34:20.396Z,1.95
2023-05-11T13:36:47.523Z,2.10
2023-05-11T13:39:14.182Z,2.00
2023-05-11T13:41:40.976Z,1.92
2023-05-11T13:44:07.937Z,2.15
2023-05-11T13:46:35.532Z,1.95
2023-05-11T13:49:03.807Z,2.13
2023-05-11T13:51:31.092Z,2.13
2023-05-11T13:53:59.371Z,1.90
2023-05-11T13:56:26.106Z,1.77
2023-05-11T13:58:52.744Z,1.92
2023-05-11T14:01:19.764Z,2.10
2023-05-11T14:03:52.129Z,1.83
2023-05-11T14:06:20.971Z,1.70
2023-05-11T14:08:47.613Z,1.95
2023-05-11T14:11:14.240Z,1.80
2023-05-11T14:13:40.928Z,1.90
2023-05-11T14:16:10.063Z,1.65
2023-05-11T14:18:36.743Z,1.85
2023-05-11T14:21:03.646Z,1.70
2023-05-11T14:23:30.463Z,1.90
2023-05-11T14:25:57.487Z,1.85
2023-05-11T14:28:24.227Z,1.80
2023-05-11T14:30:51.223Z,1.98
2023-05-11T14:33:18.036Z,1.90
2023-05-11T14:35:44.893Z,1.90
2023-05-11T14:38:11.746Z,1.70
2023-05-11T14:40:38.601Z,1.88
2023-05-11T14:43:05.230Z,1.80
2023-05-11T14:45:32.582Z,1.67
2023-05-11T14:47:59.510Z,1.52
2023-05-11T14:50:26.807Z,1.75
2023-05-11T14:52:53.535Z,1.67
2023-05-11T14:55:20.452Z,1.83
2023-05-11T14:57:47.514Z,1.70
2023-05-11T15:00:14.543Z,1.65
2023-05-11T15:02:41.840Z,1.70
2023-05-11T15:05:08.950Z,1.58
2023-05-11T15:07:36.852Z,1.60
2023-05-11T15:10:04.595Z,1.60
2023-05-11T15:12:31.390Z,1.50
2023-05-11T15:14:58.052Z,1.60
2023-05-11T15:17:24.706Z,1.77
2023-05-11T15:19:51.373Z,1.35
2023-05-11T15:22:19.173Z,1.65
2023-05-11T15:24:46.110Z,1.40
2023-05-11T15:27:12.750Z,1.60
2023-05-11T15:29:39.329Z,1.63
2023-05-11T15:32:06.447Z,1.50
2023-05-11T15:34:33.909Z,1.60
2023-05-11T15:37:00.843Z,1.40
2023-05-11T15:39:27.906Z,1.40
2023-05-11T15:41:54.796Z,1.50
2023-05-11T15:44:21.605Z,1.58
2023-05-11T15:46:48.789Z,1.65
2023-05-11T15:49:16.991Z,1.50
2023-05-11T15:51:43.754Z,1.50
2023-05-11T15:54:10.377Z,1.30
2023-05-11T15:56:37.125Z,1.52
2023-05-11T15:59:04.454Z,1.50
2023-05-11T16:01:31.608Z,1.52
2023-05-11T16:03:58.550Z,1.40
2023-05-11T16:06:25.321Z,1.42
2023-05-11T16:08:53.463Z,1.40
2023-05-11T16:11:20.288Z,1.42
2023-05-11T16:13:47.299Z,1.40
2023-05-11T16:16:14.544Z,1.33
2023-05-11T16:18:41.549Z,1.30
2023-05-11T16:21:08.421Z,1.40
2023-05-11T16:23:35.482Z,1.40
2023-05-11T16:26:02.199Z,1.40
2023-05-11T16:28:29.201Z,1.40
2023-05-11T16:30:59.073Z,1.40
2023-05-11T16:33:26.575Z,1.40
2023-05-11T16:35:53.820Z,1.30
2023-05-11T16:38:22.548Z,1.30
2023-05-11T16:40:50.406Z,1.30
2023-05-11T16:43:17.332Z,1.20
2023-05-11T16:45:44.362Z,1.38
2023-05-11T16:48:11.371Z,1.20
2023-05-11T16:50:39.117Z,1.38
2023-05-11T16:53:06.687Z,1.27
2023-05-11T16:55:34.149Z,1.20
2023-05-11T16:58:01.611Z,1.20
2023-05-11T17:00:28.516Z,1.20
2023-05-11T17:02:56.054Z,1.30
2023-05-11T17:05:25.563Z,1.30
2023-05-11T17:07:53.200Z,1.40
2023-05-11T17:10:20.958Z,1.23
2023-05-11T17:12:48.885Z,1.20
2023-05-11T17:15:16.352Z,1.30
2023-05-11T17:17:44.569Z,1.20
2023-05-11T17:20:12.543Z,1.23
2023-05-11T17:22:40.006Z,1.17
2023-05-11T17:25:08.040Z,1.15
2023-05-11T17:27:38.538Z,1.35
2023-05-11T17:30:07.250Z,1.10
2023-05-11T17:32:35.338Z,1.30
2023-05-11T17:35:04.693Z,1.23
2023-05-11T17:37:32.718Z,1.13
2023-05-11T17:40:01.823Z,1.10
2023-05-11T17:42:28.791Z,1.20
2023-05-11T17:44:56.891Z,1.10
2023-05-11T17:47:24.913Z,1.17
2023-05-11T17:49:52.409Z,1.00
2023-05-11T17:52:19.930Z,1.10
2023-05-11T17:54:47.326Z,1.30
2023-05-11T17:57:15.909Z,1.13
2023-05-11T17:59:43.463Z,1.10
2023-05-11T18:02:11.035Z,1.00
2023-05-11T18:04:39.269Z,1.13
2023-05-11T18:07:08.099Z,1.00
2023-05-11T18:09:35.808Z,1.00
2023-05-11T18:12:03.554Z,1.20
2023-05-11T18:14:31.165Z,1.10
2023-05-11T18:16:57.926Z,1.10
2023-05-11T18:19:28.189Z,1.10
2023-05-11T18:21:55.827Z,1.00
2023-05-11T18:24:23.381Z,1.00
2023-05-11T18:26:50.945Z,1.10
2023-05-11T18:29:20.745Z,1.00
2023-05-11T18:31:48.860Z,1.00
2023-05-11T18:34:16.976Z,1.00
2023-05-11T18:36:44.565Z,0.90
2023-05-11T18:39:12.121Z,0.90
2023-05-11T18:41:39.648Z,0.90
2023-05-11T18:44:07.404Z,0.90
2023-05-11T18:46:34.307Z,1.00
2023-05-11T18:49:00.899Z,0.90
2023-05-11T18:51:28.510Z,0.90
2023-05-11T18:53:55.982Z,0.95
2023-05-11T18:56:23.486Z,0.98
2023-05-11T18:58:51.274Z,0.90
2023-05-11T19:01:19.643Z,0.90
2023-05-11T19:03:47.802Z,0.90
2023-05-11T19:06:15.362Z,0.80
2023-05-11T19:08:43.139Z,0.90
2023-05-11T19:11:10.665Z,0.93
2023-05-11T19:13:37.473Z,1.00
2023-05-11T19:16:05.736Z,1.00
2023-05-11T19:18:36.135Z,0.88
2023-05-11T19:21:05.246Z,0.90
2023-05-11T19:23:36.588Z,0.93
2023-05-11T19:26:04.202Z,0.90
2023-05-11T19:28:31.706Z,0.90
2023-05-11T19:31:03.704Z,0.90
2023-05-11T19:33:30.654Z,0.82
2023-05-11T19:35:58.252Z,0.90
2023-05-11T19:38:25.962Z,0.90
2023-05-11T19:40:53.862Z,0.90
2023-05-11T19:43:20.917Z,0.80
2023-05-11T19:45:48.427Z,0.90
2023-05-11T19:48:17.193Z,0.90
2023-05-11T19:50:45.111Z,0.80
2023-05-11T19:53:12.622Z,0.90
2023-05-11T19:55:41.018Z,0.80
2023-05-11T19:58:08.633Z,0.90
2023-05-11T20:00:36.223Z,0.80
2023-05-11T20:03:04.439Z,0.80
2023-05-11T20:05:32.038Z,0.80
2023-05-11T20:08:00.410Z,0.80
2023-05-11T20:10:27.954Z,0.90
2023-05-11T20:12:57.173Z,0.90
2023-05-11T20:15:24.674Z,0.80
2023-05-11T20:17:52.205Z,0.80
2023-05-11T20:20:19.916Z,0.90
2023-05-11T20:22:47.896Z,0.90
2023-05-11T20:25:18.798Z,0.90
2023-05-11T20:27:46.940Z,0.80
2023-05-11T20:30:14.673Z,0.80
2023-05-11T20:34:06.960Z,0.80
2023-05-11T20:35:29.618Z,0.80
2023-05-11T20:37:57.554Z,0.88
2023-05-11T20:40:26.139Z,0.90
2023-05-11T20:42:53.637Z,0.77
2023-05-11T20:45:21.190Z,0.80
2023-05-11T20:47:48.585Z,0.90
2023-05-11T20:50:16.135Z,1.00
2023-05-11T20:52:43.577Z,0.80
2023-05-11T20:55:10.885Z,0.90
2023-05-11T20:57:38.215Z,0.90
2023-05-11T21:00:08.185Z,0.80
2023-05-11T21:02:36.166Z,0.80
2023-05-11T21:05:04.623Z,0.90
2023-05-11T21:07:32.078Z,0.80
2023-05-11T21:09:59.556Z,0.80
2023-05-11T21:12:26.961Z,0.77
2023-05-11T21:14:56.240Z,0.80
2023-05-11T21:17:23.580Z,0.80
2023-05-11T21:19:50.693Z,0.80
2023-05-11T21:22:17.614Z,0.80
2023-05-11T21:24:44.617Z,0.90
2023-05-11T21:27:11.621Z,0.80
2023-05-11T21:29:38.584Z,0.80
2023-05-11T21:32:05.548Z,0.90
2023-05-11T21:34:32.280Z,0.80
2023-05-11T21:36:59.936Z,0.80
2023-05-11T21:39:26.839Z,0.80
2023-05-11T21:41:53.886Z,0.80
2023-05-11T21:44:20.486Z,0.80
2023-05-11T21:46:47.112Z,0.80
2023-05-11T21:49:13.729Z,0.70
2023-05-11T21:51:40.277Z,0.80
2023-05-11T21:54:07.292Z,0.80
2023-05-11T21:56:34.609Z,0.80
2023-05-11T21:59:01.167Z,0.80
2023-05-11T22:01:27.841Z,0.80
2023-05-11T22:03:55.885Z,0.80
2023-05-11T22:06:22.508Z,0.70
2023-05-11T22:08:49.082Z,0.90
2023-05-11T22:11:15.720Z,0.80
2023-05-11T22:13:42.831Z,0.80
2023-05-11T22:16:09.391Z,0.70
2023-05-11T22:18:36.106Z,0.75
2023-05-11T22:21:02.911Z,0.80
2023-05-11T22:23:29.595Z,0.80
2023-05-11T22:25:56.206Z,0.77
2023-05-11T22:28:23.002Z,0.70
2023-05-11T22:30:49.558Z,0.80
2023-05-11T22:33:16.171Z,0.80
2023-05-11T22:35:42.839Z,0.77
2023-05-11T22:38:09.714Z,0.80
2023-05-11T22:40:36.506Z,0.70
2023-05-11T22:43:03.161Z,0.70
2023-05-11T22:45:29.705Z,0.80
2023-05-11T22:47:56.301Z,0.80
2023-05-11T22:50:22.916Z,0.70
2023-05-11T22:52:49.573Z,0.80
2023-05-11T22:55:16.309Z,0.70
2023-05-11T22:57:42.937Z,0.80
2023-05-11T23:00:10.887Z,0.73
2023-05-11T23:02:38.052Z,0.70
2023-05-11T23:05:05.305Z,0.80
2023-05-11T23:07:31.896Z,0.70
2023-05-11T23:09:58.666Z,0.70
2023-05-11T23:12:25.309Z,0.70
2023-05-11T23:14:52.406Z,0.80
2023-05-11T23:17:19.005Z,0.70
2023-05-11T23:19:45.725Z,0.80
2023-05-11T23:22:12.380Z,0.80
2023-05-11T23:24:38.937Z,0.73
2023-05-11T23:27:05.866Z,0.70
2023-05-11T23:29:32.598Z,0.70
2023-05-11T23:31:59.163Z,0.80
2023-05-11T23:34:26.274Z,0.80
2023-05-11T23:36:53.048Z,0.70
2023-05-11T23:39:19.680Z,0.80
2023-05-11T23:41:46.385Z,0.70
2023-05-11T23:44:12.999Z,0.70
2023-05-11T23:46:39.629Z,0.70
2023-05-11T23:49:06.252Z,0.68
2023-05-11T23:51:33.596Z,0.70
2023-05-11T23:54:00.187Z,0.70
2023-05-11T23:56:26.792Z,0.70
2023-05-11T23:58:53.436Z,0.70
